Airfield :
LOGIN :

Register | Disclaimer

   EN    FR    IT 

 










Legend :    VFR   Marginal VFR   IFR   Intensive IFR   Very Intensive IFR
Visi :
Ceiling :
>= 8 km
>= 3000ft
5 to 8 km
1000 to 3000 ft
1500m to 5 km
500 to 1000 ft
800 to 1500m
200 to 500 ft
< 800m
< 200 ft
Symbols :   Thunderstorms  Fog  Heavy snow  Heavy precipitations  Wind > 20 kt
SIGMETs :     Misc.  Thunderstorms  Icing  Turbulence  Mountain Waves  Volcanic Ashes






- Airport Elevation : 242 ft
- IATA code : DUB


EIDW - Dublin

CURRENT METAR :
  • 270300Z 15006KT 9999 -RA SCT028 BKN050 07/04 Q0994 NOSIG

EXPIRED METARs :
  • 270230Z 16007KT 9999 -RA FEW032 BKN070 BKN130 07/04 Q0995 NOSIG
  • 270200Z 16006KT 9999 FEW035 BKN130 07/04 Q0995 NOSIG
  • 270130Z 19005KT 160V230 9999 FEW035 BKN140 07/04 Q0996 NOSIG
  • 270100Z 16005KT 9999 FEW035 BKN150 07/05 Q0996 NOSIG
  • 270030Z 16005KT 9999 FEW035 SCT170 07/05 Q0997 NOSIG

TAF AMD TAF EIDW
Valid from the 27 at 00:00 until the 28 at 00:00 UTC


270054Z 2700/2724 16005KT 9999 SCT018 BKN030
BECMG 2703/2705 14011KT
TEMPO 2705/2708 5000 -RA BKN012
BECMG 2706/2708 18012KT
BECMG 2708/2710 25012KT
TEMPO 2708/2710 3000 -RA BKN007
PROB30
TEMPO 2708/2710 2000 BKN004
BECMG 2710/2712 26017G28KT
BECMG 2712/2714 24013KT
TEMPO 2714/2717 23014G25KT
PROB30
TEMPO 2714/2716 5000 SHRA SCT018CB
BECMG 2717/2719 23014G25KT
TEMPO 2719/2724 22017G30KT



MET'MAP, your aeronautical weather chart ! - Copyright ORBIFLY December 2007 - Disclaimer

ORBIFLY MET'MAP TEAM :

Programming & Development : Alexandra Zaïnal
Concept & original design : Baudouin d'Aumeries
Assistance for programming : Marc-Olivier Méhu
Technical & hardware support : Manuel Goepfert

Contact : metmap@orbifly.com




SOURCES & CREDITS :

   NOAA